< < Back
Terminal Aerodrome Forecast


Current Version              Previous Versions:   1  2  3  4  5  6  7  8  9  

Terminal Aerodrome Forecast

875
FTUS44 KOHX 291600 AAB
TAFBNA
TAF AMD
KBNA 291614Z 2916/3012 16007KT P6SM VCSH BKN015
     FM292100 18008KT P6SM VCSH BKN030 BKN045
     FM300200 17007KT P6SM BKN080=

Latest METAR

181
SAUS70 KWBC 300800 RRF
MTRBNA
METAR KBNA 300753Z 17005KT 10SM FEW110 21/18 A3008 RMK AO2 SLP178
T02060178


USA.gov is the U.S. government's official web portal to all federal, state and local government web resources and services.